createdAt,value
2023-03-07T00:00:50.438Z,114.00
2023-03-07T00:03:33.665Z,109.60
2023-03-07T00:06:16.770Z,114.10
2023-03-07T00:09:02.185Z,109.70
2023-03-07T00:11:45.024Z,102.60
2023-03-07T00:17:10.880Z,104.00
2023-03-07T00:19:54.006Z,81.00
2023-03-07T00:22:37.951Z,94.40
2023-03-07T00:25:20.872Z,92.20
2023-03-07T00:30:46.596Z,85.20
2023-03-07T00:36:15.792Z,75.30
2023-03-07T00:38:58.732Z,89.90
2023-03-07T00:41:41.613Z,84.30
2023-03-07T00:47:09.193Z,84.40
2023-03-07T00:49:52.568Z,74.20
2023-03-07T00:52:35.569Z,81.50
2023-03-07T00:55:18.752Z,71.80
2023-03-07T00:58:01.817Z,70.30
2023-03-07T01:00:45.266Z,87.00
2023-03-07T01:03:29.026Z,77.90
2023-03-07T01:06:15.477Z,70.00
2023-03-07T01:09:02.616Z,62.90
2023-03-07T01:11:46.128Z,59.30
2023-03-07T01:14:29.184Z,60.60
2023-03-07T01:17:12.313Z,58.80
2023-03-07T01:19:55.423Z,69.90
2023-03-07T01:22:38.340Z,68.80
2023-03-07T01:25:22.324Z,72.70
2023-03-07T01:30:57.452Z,62.30
2023-03-07T01:33:40.613Z,57.00
2023-03-07T01:36:29.961Z,59.60
2023-03-07T01:39:19.250Z,54.70
2023-03-07T01:42:06.675Z,58.70
2023-03-07T01:45:08.290Z,61.30
2023-03-07T01:47:57.067Z,44.80
2023-03-07T01:50:40.976Z,57.40
2023-03-07T01:53:23.865Z,55.20
2023-03-07T01:56:08.749Z,55.60
2023-03-07T01:58:53.113Z,70.90
2023-03-07T02:02:20.498Z,48.30
2023-03-07T02:05:46.045Z,60.80
2023-03-07T02:09:48.739Z,54.50
2023-03-07T02:13:42.748Z,59.00
2023-03-07T02:17:29.338Z,50.40
2023-03-07T02:21:32.348Z,59.10
2023-03-07T02:25:42.102Z,54.20
2023-03-07T02:29:46.156Z,58.00
2023-03-07T02:33:40.275Z,56.20
2023-03-07T02:37:50.331Z,55.90
2023-03-07T02:41:54.503Z,57.60
2023-03-07T02:46:01.618Z,62.70
2023-03-07T02:50:04.126Z,68.90
2023-03-07T02:54:06.947Z,72.40
2023-03-07T02:58:01.166Z,65.60
2023-03-07T03:01:37.599Z,61.30
2023-03-07T03:05:25.160Z,66.70
2023-03-07T03:09:09.321Z,74.20
2023-03-07T03:12:46.784Z,57.40
2023-03-07T03:16:45.027Z,61.70
2023-03-07T03:20:39.000Z,48.00
2023-03-07T03:24:32.935Z,50.80
2023-03-07T03:28:37.606Z,52.10
2023-03-07T03:32:22.655Z,52.20
2023-03-07T03:36:16.028Z,52.90
2023-03-07T03:40:10.172Z,54.70
2023-03-07T03:43:37.452Z,52.20
2023-03-07T03:47:31.728Z,57.60
2023-03-07T03:51:47.794Z,65.80
2023-03-07T03:55:27.381Z,59.40
2023-03-07T03:59:25.317Z,59.70
2023-03-07T04:03:28.222Z,64.80
2023-03-07T04:06:46.228Z,64.80
2023-03-07T04:10:50.254Z,67.00
2023-03-07T04:14:47.046Z,66.80
2023-03-07T04:18:49.838Z,63.50
2023-03-07T04:22:33.924Z,58.20
2023-03-07T04:26:37.931Z,61.10
2023-03-07T04:30:28.199Z,65.80
2023-03-07T04:34:13.618Z,62.10
2023-03-07T04:38:17.738Z,63.60
2023-03-07T04:42:21.948Z,52.60
2023-03-07T04:46:26.959Z,52.70
2023-03-07T04:50:31.083Z,47.40
2023-03-07T04:54:24.048Z,43.40
2023-03-07T04:58:21.106Z,42.20
2023-03-07T05:02:15.088Z,48.10
2023-03-07T05:06:11.821Z,46.70
2023-03-07T05:10:04.453Z,39.20
2023-03-07T05:13:58.293Z,41.80
2023-03-07T05:18:02.356Z,40.80
2023-03-07T05:21:51.843Z,38.20
2023-03-07T05:25:28.635Z,37.40
2023-03-07T05:29:31.405Z,38.40
2023-03-07T05:36:30.572Z,40.00
2023-03-07T05:39:58.018Z,45.50
2023-03-07T05:43:47.895Z,44.80
2023-03-07T05:47:11.556Z,41.30
2023-03-07T05:50:30.054Z,41.60
2023-03-07T05:54:14.268Z,38.90
2023-03-07T05:57:56.755Z,41.20
2023-03-07T06:01:50.990Z,41.70
2023-03-07T06:09:03.150Z,44.50
2023-03-07T06:13:05.609Z,49.10
2023-03-07T06:17:03.326Z,43.70
2023-03-07T06:20:58.438Z,49.40
2023-03-07T06:24:43.678Z,46.40
2023-03-07T06:28:40.174Z,44.50
2023-03-07T06:32:28.029Z,44.70
2023-03-07T06:36:24.527Z,46.80
2023-03-07T06:40:16.778Z,53.20
2023-03-07T06:44:02.519Z,45.70
2023-03-07T06:47:32.851Z,51.80
2023-03-07T06:51:24.302Z,47.50
2023-03-07T06:54:37.765Z,56.70
2023-03-07T06:58:14.898Z,51.60
2023-03-07T07:01:53.086Z,54.00
2023-03-07T07:09:21.783Z,56.20
2023-03-07T07:12:38.199Z,59.50
2023-03-07T07:16:14.158Z,60.10
2023-03-07T07:19:30.764Z,60.40
2023-03-07T07:22:54.482Z,60.00
2023-03-07T07:29:43.754Z,74.00
2023-03-07T07:33:14.967Z,63.60
2023-03-07T07:36:57.117Z,70.60
2023-03-07T07:40:50.958Z,58.50
2023-03-07T07:44:40.400Z,58.60
2023-03-07T07:48:23.408Z,54.50
2023-03-07T07:51:48.188Z,55.40
2023-03-07T07:54:53.469Z,56.20
2023-03-07T07:58:33.580Z,52.20
2023-03-07T08:02:01.029Z,48.60
2023-03-07T08:05:47.256Z,50.40
2023-03-07T08:09:26.365Z,52.50
2023-03-07T08:13:00.139Z,52.50
2023-03-07T08:16:33.745Z,58.70
2023-03-07T08:20:06.339Z,53.00
2023-03-07T08:24:10.653Z,53.90
2023-03-07T08:27:55.269Z,54.70
2023-03-07T08:30:51.723Z,54.70
2023-03-07T08:34:29.705Z,57.60
2023-03-07T08:38:03.563Z,52.00
2023-03-07T08:44:23.898Z,50.60
2023-03-07T08:47:40.091Z,52.00
2023-03-07T08:51:00.529Z,46.30
2023-03-07T08:54:25.848Z,44.60
2023-03-07T08:58:02.334Z,43.60
2023-03-07T09:01:13.141Z,45.80
2023-03-07T09:04:28.163Z,47.00
2023-03-07T09:07:54.994Z,43.20
2023-03-07T09:11:50.449Z,41.80
2023-03-07T09:15:24.513Z,41.80
2023-03-07T09:19:08.622Z,42.30
2023-03-07T09:22:31.311Z,41.90
2023-03-07T09:25:35.124Z,40.60
2023-03-07T09:28:58.968Z,45.20
2023-03-07T09:32:17.166Z,39.00
2023-03-07T09:36:01.220Z,40.50
2023-03-07T09:39:24.956Z,43.40
2023-03-07T09:42:44.241Z,43.90
2023-03-07T09:46:16.967Z,41.10
2023-03-07T09:49:47.440Z,41.80
2023-03-07T09:52:48.489Z,48.30
2023-03-07T09:55:37.172Z,41.30
2023-03-07T09:59:35.035Z,45.70
2023-03-07T10:03:19.864Z,47.60
2023-03-07T10:06:42.203Z,40.20
2023-03-07T10:09:51.801Z,40.20
2023-03-07T10:13:38.815Z,37.90
2023-03-07T10:17:35.570Z,43.30
2023-03-07T10:21:40.853Z,43.60
2023-03-07T10:25:31.001Z,44.50
2023-03-07T10:29:08.435Z,41.80
2023-03-07T10:32:59.034Z,43.00
2023-03-07T10:36:34.647Z,45.90
2023-03-07T10:40:05.072Z,47.50
2023-03-07T10:43:20.292Z,46.10
2023-03-07T10:46:41.554Z,45.80
2023-03-07T10:50:25.003Z,47.10
2023-03-07T10:54:05.630Z,45.80
2023-03-07T10:57:23.580Z,45.70
2023-03-07T11:01:01.867Z,48.20
2023-03-07T11:05:01.118Z,49.30
2023-03-07T11:09:01.696Z,46.70
2023-03-07T11:12:37.456Z,49.80
2023-03-07T11:15:50.933Z,45.10
2023-03-07T11:19:25.015Z,43.60
2023-03-07T11:22:48.828Z,44.20
2023-03-07T11:25:49.103Z,48.90
2023-03-07T11:30:05.759Z,45.80
2023-03-07T11:33:49.512Z,45.50
2023-03-07T11:37:40.433Z,42.30
2023-03-07T11:41:34.545Z,47.50
2023-03-07T11:44:37.021Z,45.30
2023-03-07T11:48:35.161Z,44.00
2023-03-07T11:52:19.568Z,43.50
2023-03-07T11:56:29.532Z,42.30
2023-03-07T12:00:20.924Z,41.00
2023-03-07T12:03:42.733Z,39.30
2023-03-07T12:07:42.635Z,45.30
2023-03-07T12:11:05.306Z,42.80
2023-03-07T12:14:57.163Z,43.40
2023-03-07T12:19:05.579Z,42.70
2023-03-07T12:22:19.451Z,42.80
2023-03-07T12:25:52.571Z,40.20
2023-03-07T12:29:28.850Z,40.50
2023-03-07T12:32:53.217Z,38.20
2023-03-07T12:36:11.317Z,38.00
2023-03-07T12:39:22.079Z,38.40
2023-03-07T12:43:05.986Z,39.20
2023-03-07T12:46:26.942Z,35.70
2023-03-07T12:49:58.823Z,33.60
2023-03-07T12:53:31.781Z,38.50
2023-03-07T12:57:08.513Z,31.60
2023-03-07T13:00:03.855Z,32.50
2023-03-07T13:06:44.349Z,30.60
2023-03-07T13:10:30.024Z,32.40
2023-03-07T13:14:33.230Z,32.60
2023-03-07T13:17:49.629Z,33.30
2023-03-07T13:22:09.148Z,31.00
2023-03-07T13:25:52.962Z,31.50
2023-03-07T13:29:29.213Z,30.50
2023-03-07T13:33:31.563Z,32.50
2023-03-07T13:37:21.347Z,32.20
2023-03-07T13:41:14.303Z,33.90
2023-03-07T13:48:04.117Z,35.50
2023-03-07T13:51:35.577Z,33.80
2023-03-07T13:55:29.876Z,34.30
2023-03-07T13:59:33.044Z,35.60
2023-03-07T14:02:51.376Z,37.00
2023-03-07T14:06:10.984Z,35.10
2023-03-07T14:10:03.845Z,34.70
2023-03-07T14:14:18.016Z,34.10
2023-03-07T14:18:17.064Z,39.90
2023-03-07T14:22:03.627Z,36.70
2023-03-07T14:25:13.284Z,41.60
2023-03-07T14:29:29.707Z,42.40
2023-03-07T14:33:22.616Z,37.80
2023-03-07T14:36:51.474Z,34.70
2023-03-07T14:40:01.313Z,38.20
2023-03-07T14:43:29.634Z,39.80
2023-03-07T14:47:29.029Z,34.50
2023-03-07T14:50:43.441Z,36.20
2023-03-07T14:53:47.872Z,38.90
2023-03-07T14:57:26.638Z,34.20
2023-03-07T15:01:39.691Z,32.40
2023-03-07T15:05:23.494Z,33.40
2023-03-07T15:08:53.168Z,33.90
2023-03-07T15:12:42.316Z,34.00
2023-03-07T15:16:09.152Z,31.50
2023-03-07T15:20:16.903Z,32.20
2023-03-07T15:23:45.159Z,29.60
2023-03-07T15:26:54.256Z,31.80
2023-03-07T15:30:29.205Z,33.40
2023-03-07T15:33:56.859Z,35.10
2023-03-07T15:36:55.845Z,36.10
2023-03-07T15:40:49.030Z,37.50
2023-03-07T15:43:38.402Z,35.90
2023-03-07T15:47:08.042Z,33.60
2023-03-07T15:51:06.419Z,34.00
2023-03-07T15:55:02.281Z,33.50
2023-03-07T15:58:55.055Z,31.30
2023-03-07T16:02:55.070Z,34.50
2023-03-07T16:06:26.437Z,33.40
2023-03-07T16:09:42.388Z,35.50
2023-03-07T16:13:02.455Z,35.80
2023-03-07T16:16:27.184Z,33.80
2023-03-07T16:19:50.585Z,33.90
2023-03-07T16:22:58.385Z,34.40
2023-03-07T16:26:19.241Z,36.40
2023-03-07T16:29:36.575Z,32.30
2023-03-07T16:33:25.293Z,36.60
2023-03-07T16:39:55.732Z,32.80
2023-03-07T16:43:06.395Z,34.60
2023-03-07T16:45:49.754Z,34.70
2023-03-07T16:48:49.842Z,27.60
2023-03-07T16:51:39.568Z,15.30
2023-03-07T16:55:02.758Z,10.90
2023-03-07T16:58:02.555Z,15.20
2023-03-07T17:01:46.501Z,19.30
2023-03-07T17:04:52.053Z,12.30
2023-03-07T17:08:04.245Z,10.60
2023-03-07T17:12:14.106Z,10.90
2023-03-07T17:15:33.228Z,12.90
2023-03-07T17:19:05.410Z,9.60
2023-03-07T17:22:22.636Z,10.20
2023-03-07T17:25:56.512Z,10.80
2023-03-07T17:33:04.192Z,9.40
2023-03-07T17:36:39.752Z,7.10
2023-03-07T17:40:05.438Z,6.40
2023-03-07T17:43:21.237Z,11.20
2023-03-07T17:46:24.513Z,17.40
2023-03-07T17:50:19.551Z,17.10
2023-03-07T17:53:36.200Z,22.80
2023-03-07T17:56:40.745Z,17.00
2023-03-07T17:59:33.159Z,15.10
2023-03-07T18:02:40.864Z,12.30
2023-03-07T18:05:34.416Z,13.20
2023-03-07T18:08:37.708Z,12.70
2023-03-07T18:11:38.654Z,13.10
2023-03-07T18:14:37.994Z,11.30
2023-03-07T18:17:49.099Z,12.10
2023-03-07T18:20:56.806Z,14.10
2023-03-07T18:24:03.709Z,10.30
2023-03-07T18:26:59.395Z,10.20
2023-03-07T18:30:14.079Z,12.40
2023-03-07T18:33:28.466Z,10.90
2023-03-07T18:36:29.804Z,10.70
2023-03-07T18:39:59.995Z,10.90
2023-03-07T18:43:20.535Z,8.90
2023-03-07T18:46:23.667Z,10.70
2023-03-07T18:49:57.943Z,12.70
2023-03-07T18:53:06.221Z,14.20
2023-03-07T18:56:49.336Z,14.50
2023-03-07T18:59:52.353Z,13.10
2023-03-07T19:02:56.214Z,11.80
2023-03-07T19:06:37.359Z,12.80
2023-03-07T19:10:36.632Z,16.60
2023-03-07T19:14:14.857Z,17.10
2023-03-07T19:17:32.880Z,17.50
2023-03-07T19:20:59.097Z,21.10
2023-03-07T19:24:33.727Z,18.70
2023-03-07T19:27:36.231Z,21.20
2023-03-07T19:30:22.209Z,18.10
2023-03-07T19:33:34.284Z,19.90
2023-03-07T19:37:08.562Z,19.70
2023-03-07T19:40:57.393Z,15.70
2023-03-07T19:44:26.981Z,21.30
2023-03-07T19:48:17.973Z,20.20
2023-03-07T19:51:54.067Z,16.10
2023-03-07T19:54:42.260Z,18.10
2023-03-07T19:58:22.476Z,16.10
2023-03-07T20:01:54.191Z,15.00
2023-03-07T20:05:11.910Z,17.00
2023-03-07T20:08:33.397Z,14.50
2023-03-07T20:12:02.572Z,16.80
2023-03-07T20:15:49.021Z,15.30
2023-03-07T20:19:02.697Z,17.60
2023-03-07T20:22:40.373Z,19.00
2023-03-07T20:26:02.106Z,15.50
2023-03-07T20:29:02.575Z,16.00
2023-03-07T20:32:11.838Z,19.90
2023-03-07T20:35:17.237Z,18.70
2023-03-07T20:38:06.542Z,16.90
2023-03-07T20:41:23.021Z,19.00
2023-03-07T20:44:18.143Z,19.70
2023-03-07T20:47:39.160Z,18.50
2023-03-07T20:50:38.934Z,20.40
2023-03-07T20:54:01.901Z,22.20
2023-03-07T20:57:28.416Z,18.50
2023-03-07T21:01:02.738Z,20.00
2023-03-07T21:04:12.523Z,22.30
2023-03-07T21:07:01.355Z,22.40
2023-03-07T21:09:53.666Z,22.70
2023-03-07T21:13:24.296Z,26.20
2023-03-07T21:16:54.668Z,21.70
2023-03-07T21:19:49.856Z,22.30
2023-03-07T21:22:42.320Z,24.10
2023-03-07T21:25:56.012Z,24.40
2023-03-07T21:29:09.774Z,22.30
2023-03-07T21:32:10.084Z,23.90
2023-03-07T21:35:38.542Z,24.60
2023-03-07T21:39:07.319Z,23.70
2023-03-07T21:42:12.191Z,26.40
2023-03-07T21:45:56.886Z,25.50
2023-03-07T21:49:14.941Z,25.40
2023-03-07T21:52:57.238Z,24.60
2023-03-07T21:56:36.152Z,23.60
2023-03-07T21:59:50.373Z,23.30
2023-03-07T22:03:17.004Z,20.40
2023-03-07T22:06:55.390Z,24.00
2023-03-07T22:10:15.539Z,19.30
2023-03-07T22:14:00.601Z,23.80
2023-03-07T22:17:44.861Z,23.20
2023-03-07T22:21:28.850Z,22.20
2023-03-07T22:24:55.616Z,26.70
2023-03-07T22:27:58.296Z,20.80
2023-03-07T22:31:53.391Z,22.40
2023-03-07T22:35:17.839Z,22.00
2023-03-07T22:39:06.764Z,25.00
2023-03-07T22:42:28.724Z,21.00
2023-03-07T22:46:02.539Z,19.60
2023-03-07T22:49:33.723Z,20.10
2023-03-07T22:53:25.355Z,17.70
2023-03-07T22:57:13.144Z,18.50
2023-03-07T23:00:42.570Z,17.90
2023-03-07T23:04:29.864Z,16.50
2023-03-07T23:07:58.558Z,17.50
2023-03-07T23:11:53.872Z,17.60
2023-03-07T23:15:40.442Z,19.80
2023-03-07T23:19:02.846Z,21.20
2023-03-07T23:25:15.772Z,17.70
2023-03-07T23:28:31.781Z,16.60
2023-03-07T23:31:56.102Z,16.50
2023-03-07T23:35:49.472Z,18.00
2023-03-07T23:39:16.732Z,17.90
2023-03-07T23:42:23.233Z,17.70
2023-03-07T23:49:53.164Z,18.10
2023-03-07T23:53:40.233Z,17.30
2023-03-07T23:57:42.972Z,20.20
